Cisco, Utah
Current Conditions -  °F | °C
As of 7:53 AM on Wednesday 26 Nov 2014 (Local Time) from KCNY Reporting Station
Clear Clear  
Wind Chill: 24°   Ceiling: Unl
Heat Index: 24°   Visibility: 10mi
Dew Point:   Wind: 0mph
Humidity: 51%   Direction: NA
Pressure: 30.38"   Gusts: NA
Location:  38.97°N, 109.32°W
Report Text: KCNY 261453Z AUTO 00000KT 10SM CLR M04/M13 A3038 RMK AO2 SLP316 T10441133 53013
Loading
Personal Weather Stations






























Interactive Weather Map New forecast layout! Learn more

10-Day Weather Forecast

Advertisements
Track Severe Weather on mobile